KTEB/TEB METAR and TAF weather

Enter ICAO airport designator
Station Type Date Time Source
KTEB METAR 2024/02/21 00:51 UTC NOAA

KTEB 210051Z 00000KT 10SM CLR 00/M09 A3048 RMK AO2 SLP321 T00001089


Station Type Date Time Source
KTEB Decoded METAR 2024/02/21 00:51 UTC NOAA

TETERBORO AIRPORT, NJ, United States (KTEB) 40-52N 74-03W 7M
Feb 20, 2024 - 07:51 PM EST / 2024.02.21 0051 UTC
Wind: Calm:0
Visibility: 10 mile(s):0
Sky conditions: clear
Temperature: 32.0 F (0.0 C)
Dew Point: 16.0 F (-8.9 C)
Relative Humidity: 51%
Pressure (altimeter): 30.48 in. Hg (1032 hPa)
ob: KTEB 210051Z 00000KT 10SM CLR 00/M09 A3048 RMK AO2 SLP321 T00001089
cycle: 1

Station Type Date Time Source
KTEB TAF 2024/02/20 21:36 UTC NOAA

TAF
AMD KTEB 202033Z 2021/2124 VRB03KT P6SM SKC
FM211400 10005KT P6SM FEW030 SCT250

Example: see airport list